Terminal Aerodrome Forecast
Issued by NWS

Home | Current Version | Previous Version | Text Only | Print | Product List | Glossary On
Versions: 1 2 3 4 5 6 7 8 9 10 11 12 13 14 15 16 17 18 19 20 21
804
FTUS46 KSEW 302329
TAFBLI
TAF
KBLI 302329Z 0100/0124 26005KT P6SM SKC
     FM010400 VRB03KT P6SM SCT120 BKN200
     FM011100 13005KT P6SM BKN080
     FM011600 14007KT P6SM VCSH BKN050
     FM011900 15012KT 6SM -SHRA BKN050=

USA.gov is the U.S. government's official web portal to all federal, state and local government web resources and services.